Time;durP1;ratioP1;P1;durP2;ratioP2;P2;SDS_P1;SDS_P2;PMS_P1;PMS_P2;Temp;Humidity;BMP_temperature;BMP_pressure;BME280_temperature;BME280_humidity;BME280_pressure;Samples;Min_cycle;Max_cycle;Signal;HPM_P1;HPM_P2
2021/12/02 00:01:40;;;;;;;4.10;1.02;;;;;;;4.98;70.35;97916.59;5071078;28;20536;-81
2021/12/02 00:04:10;;;;;;;3.50;1.05;;;;;;;4.96;71.22;97883.78;5065454;28;20040;-81
2021/12/02 00:06:42;;;;;;;6.93;1.10;;;;;;;4.96;71.65;97889.81;5065510;28;20553;-81
2021/12/02 00:09:10;;;;;;;5.50;1.48;;;;;;;5.01;71.26;97887.69;5045618;28;20058;-82
2021/12/02 00:11:48;;;;;;;5.75;1.02;;;;;;;4.97;71.63;97891.47;5036247;28;20048;-82
2021/12/02 00:14:24;;;;;;;3.22;1.05;;;;;;;5.01;71.04;97911.16;5028341;28;20400;-81
2021/12/02 00:22:20;;;;;;;7.50;1.52;;;;;;;4.96;71.59;97875.97;5037211;28;20040;-81
2021/12/02 00:25:00;;;;;;;1.95;0.68;;;;;;;4.95;71.11;97929.84;5063003;28;20123;-80
2021/12/02 00:27:36;;;;;;;4.95;0.80;;;;;;;4.90;72.17;97915.53;5033393;28;20041;-81
2021/12/02 00:30:05;;;;;;;5.82;1.05;;;;;;;4.85;71.73;97939.34;5015059;28;20053;-80
2021/12/02 00:32:39;;;;;;;7.70;1.02;;;;;;;4.89;71.42;97919.94;4999971;28;20452;-81
2021/12/02 00:35:08;;;;;;;4.70;1.25;;;;;;;4.86;71.35;97943.63;5053536;28;20037;-81
2021/12/02 00:37:38;;;;;;;2.33;0.60;;;;;;;4.85;71.30;97922.91;5001164;28;20106;-80
2021/12/02 00:40:07;;;;;;;2.03;0.60;;;;;;;4.80;72.13;97933.69;5078510;28;20094;-80
2021/12/02 00:42:36;;;;;;;3.22;0.60;;;;;;;4.81;72.10;97943.16;5066635;28;20044;-82
2021/12/02 00:45:19;;;;;;;7.53;1.08;;;;;;;4.62;75.38;97959.41;5062807;28;20484;-80
2021/12/02 00:47:47;;;;;;;5.82;0.85;;;;;;;4.49;78.70;97997.75;5044816;28;20067;-81
2021/12/02 00:50:16;;;;;;;5.97;0.95;;;;;;;4.28;82.02;97990.63;5042736;28;20036;-80
2021/12/02 00:52:48;;;;;;;3.42;0.88;;;;;;;4.05;86.56;97987.16;5036236;28;20075;-81
2021/12/02 00:55:16;;;;;;;4.22;0.82;;;;;;;3.74;90.56;97979.94;5034414;28;20083;-80
2021/12/02 00:57:44;;;;;;;2.15;0.70;;;;;;;3.48;95.22;98013.03;5066003;28;20076;-80
2021/12/02 01:00:14;;;;;;;4.57;0.70;;;;;;;3.21;98.83;98018.44;5048551;28;20069;-81
2021/12/02 01:02:42;;;;;;;4.63;0.73;;;;;;;3.08;100.00;98031.47;5066463;28;20040;-81
2021/12/02 01:05:18;;;;;;;6.25;0.80;;;;;;;3.09;100.00;98021.88;5034421;28;20119;-82
2021/12/02 01:07:45;;;;;;;3.03;0.80;;;;;;;2.98;100.00;98052.06;5047460;28;20040;-82
2021/12/02 01:10:13;;;;;;;3.58;0.93;;;;;;;2.99;100.00;98058.91;5064456;28;20072;-80
2021/12/02 01:12:40;;;;;;;3.20;1.25;;;;;;;2.92;100.00;98069.81;5083463;28;20056;-81
2021/12/02 01:15:08;;;;;;;2.38;0.57;;;;;;;2.85;100.00;98042.63;5058838;28;20051;-80
2021/12/02 01:17:36;;;;;;;4.32;0.80;;;;;;;2.75;100.00;98039.81;5079913;28;20044;-81
2021/12/02 01:20:06;;;;;;;2.97;0.75;;;;;;;2.76;100.00;98046.66;5049465;28;20535;-81
2021/12/02 01:22:36;;;;;;;3.30;0.60;;;;;;;2.76;99.49;98038.88;5043743;28;20139;-82
2021/12/02 01:25:06;;;;;;;1.48;0.60;;;;;;;2.78;97.26;98096.75;5011198;28;20059;-81
2021/12/02 01:27:35;;;;;;;1.08;0.50;;;;;;;2.82;97.69;98055.81;5054685;28;20110;-81
2021/12/02 01:30:04;;;;;;;1.55;0.50;;;;;;;2.81;96.94;98064.53;5063708;28;20051;-80
2021/12/02 01:32:33;;;;;;;1.65;0.35;;;;;;;2.80;97.18;98079.31;5049260;28;20075;-82
2021/12/02 01:35:05;;;;;;;2.05;0.52;;;;;;;2.76;96.33;98083.88;5015733;28;20041;-82
2021/12/02 01:37:34;;;;;;;0.50;0.30;;;;;;;2.74;95.77;98074.50;5050684;28;20056;-81
2021/12/02 01:40:02;;;;;;;1.02;0.32;;;;;;;2.79;95.67;98081.06;5029024;28;20036;-81
2021/12/02 01:42:31;;;;;;;0.63;0.30;;;;;;;2.76;96.85;98083.88;5049077;28;20139;-81
2021/12/02 01:45:00;;;;;;;2.28;0.65;;;;;;;2.72;94.30;98072.03;5044290;28;20028;-81
2021/12/02 01:47:31;;;;;;;0.85;0.30;;;;;;;2.76;93.23;98090.84;5015469;28;20427;-79
2021/12/02 01:50:01;;;;;;;3.00;0.50;;;;;;;2.79;90.65;98083.69;5042106;28;20043;-81
2021/12/02 01:52:48;;;;;;;1.55;0.35;;;;;;;2.83;89.01;98093.84;5062762;28;20052;-81
2021/12/02 01:55:16;;;;;;;2.92;0.50;;;;;;;2.84;86.98;98096.34;5028478;28;20112;-81
2021/12/02 01:57:58;;;;;;;2.13;0.30;;;;;;;2.87;86.11;98090.09;5080024;28;20121;-82
2021/12/02 02:00:44;;;;;;;0.98;0.40;;;;;;;2.88;85.52;98079.63;5030438;28;20036;-82
2021/12/02 02:03:18;;;;;;;1.00;0.32;;;;;;;2.83;85.14;98089.47;5068792;28;20051;-81
2021/12/02 02:05:51;;;;;;;4.95;0.60;;;;;;;2.87;83.94;98085.72;5070434;28;20056;-81
2021/12/02 02:08:21;;;;;;;2.80;0.40;;;;;;;2.88;84.05;98077.03;5033829;28;20051;-81
2021/12/02 02:10:49;;;;;;;2.60;0.52;;;;;;;2.92;83.72;98088.00;5016645;28;20040;-81
2021/12/02 02:13:20;;;;;;;0.80;0.30;;;;;;;2.89;83.12;98075.25;5056752;28;20113;-81
2021/12/02 02:15:52;;;;;;;0.50;0.30;;;;;;;2.85;83.77;98073.78;5018983;28;20070;-81
2021/12/02 02:18:24;;;;;;;1.35;0.40;;;;;;;2.78;84.27;98081.97;5033776;28;20277;-80
2021/12/02 02:21:08;;;;;;;2.50;0.45;;;;;;;2.73;83.96;98088.44;5036364;28;20477;-81
2021/12/02 02:23:43;;;;;;;2.90;0.43;;;;;;;2.74;83.99;98093.53;5081518;28;20611;-81
2021/12/02 02:26:11;;;;;;;1.08;0.50;;;;;;;2.70;84.40;98101.63;5050051;28;20052;-82
2021/12/02 02:28:39;;;;;;;1.42;0.40;;;;;;;2.65;84.27;98116.69;5060690;28;20503;-82
2021/12/02 02:31:07;;;;;;;2.20;0.60;;;;;;;2.66;85.42;98102.78;5032533;28;20135;-79
2021/12/02 02:33:38;;;;;;;1.67;0.45;;;;;;;2.66;85.96;98102.78;5062964;28;20140;-80
2021/12/02 02:36:08;;;;;;;1.70;0.50;;;;;;;2.66;86.47;98128.75;5043941;28;20049;-82
2021/12/02 02:38:36;;;;;;;1.85;0.47;;;;;;;2.71;86.62;98142.28;5035728;28;20048;-81
2021/12/02 02:41:07;;;;;;;3.08;0.40;;;;;;;2.61;87.94;98131.66;5048758;28;20124;-80
2021/12/02 02:43:36;;;;;;;3.00;0.57;;;;;;;2.60;88.66;98135.19;5032689;28;20055;-81
2021/12/02 02:46:04;;;;;;;3.17;0.68;;;;;;;2.61;89.56;98130.81;5041936;28;20057;-83
2021/12/02 02:48:32;;;;;;;2.55;0.50;;;;;;;2.59;88.87;98176.84;5026218;28;20094;-81
2021/12/02 02:51:01;;;;;;;6.93;0.68;;;;;;;2.60;88.96;98129.97;5033052;28;20065;-80
2021/12/02 02:53:35;;;;;;;0.98;0.55;;;;;;;2.60;89.49;98142.97;5017755;28;20499;-82
2021/12/02 02:56:18;;;;;;;2.42;0.63;;;;;;;2.61;88.93;98123.00;5068870;28;20101;-80
2021/12/02 03:07:21;;;;;;;1.88;0.55;;;;;;;2.67;87.15;98131.25;5057611;28;20502;-80
2021/12/02 03:09:56;;;;;;;6.50;0.75;;;;;;;2.70;86.38;98158.78;5053679;28;20078;-82
2021/12/02 03:12:32;;;;;;;4.45;0.70;;;;;;;2.74;85.41;98179.25;5036539;28;20115;-81
2021/12/02 03:17:36;;;;;;;3.25;0.80;;;;;;;2.83;83.67;98156.19;5054604;28;20047;-80
2021/12/02 03:20:05;;;;;;;4.75;0.88;;;;;;;2.82;85.73;98168.34;5049211;28;20060;-81
2021/12/02 03:22:37;;;;;;;7.45;0.80;;;;;;;2.85;85.88;98177.72;5065641;28;20058;-79
2021/12/02 03:25:06;;;;;;;1.85;0.50;;;;;;;2.79;87.59;98189.34;5049140;28;20503;-80
2021/12/02 03:27:35;;;;;;;3.45;0.77;;;;;;;2.73;88.84;98177.59;5033606;28;20136;-81
2021/12/02 03:30:06;;;;;;;5.68;1.00;;;;;;;2.66;89.63;98180.72;5032407;28;20064;-80
2021/12/02 03:32:36;;;;;;;4.32;0.70;;;;;;;2.63;90.05;98192.13;5063691;28;20045;-80
2021/12/02 03:35:05;;;;;;;2.25;0.70;;;;;;;2.58;90.53;98185.56;5050359;28;20368;-80
2021/12/02 03:37:33;;;;;;;4.10;0.77;;;;;;;2.53;90.60;98191.91;5040919;28;20111;-80
2021/12/02 03:40:00;;;;;;;3.20;0.75;;;;;;;2.50;90.59;98175.69;5071516;28;20066;-82
2021/12/02 03:42:28;;;;;;;3.97;0.73;;;;;;;2.54;90.66;98188.34;5035591;28;20162;-80
2021/12/02 03:44:57;;;;;;;3.65;0.90;;;;;;;2.52;89.71;98197.16;5046290;28;20123;-79
2021/12/02 03:47:27;;;;;;;2.42;0.75;;;;;;;2.59;88.58;98179.44;5017698;28;20131;-79
2021/12/02 03:49:55;;;;;;;2.45;0.80;;;;;;;2.63;88.45;98199.09;5072608;28;20039;-81
2021/12/02 03:52:22;;;;;;;2.33;0.63;;;;;;;2.61;87.97;98271.94;5066250;28;20139;-80
2021/12/02 03:54:49;;;;;;;4.25;0.70;;;;;;;2.68;87.75;98216.03;5029085;28;20093;-81
2021/12/02 03:57:18;;;;;;;3.08;1.23;;;;;;;2.63;88.12;98207.72;5049089;28;20565;-81
2021/12/02 03:59:46;;;;;;;2.22;0.60;;;;;;;2.62;88.66;98216.44;5063411;28;20048;-80
2021/12/02 04:02:17;;;;;;;7.93;1.15;;;;;;;2.60;89.10;98201.88;5050176;28;20068;-80
2021/12/02 04:04:44;;;;;;;4.32;0.73;;;;;;;2.60;89.43;98207.91;5062779;28;20044;-79
2021/12/02 04:07:12;;;;;;;2.47;0.75;;;;;;;2.59;89.22;98211.44;5050307;28;20163;-80
2021/12/02 04:09:44;;;;;;;2.88;0.60;;;;;;;2.62;89.62;98218.22;5047675;28;20406;-81
2021/12/02 04:15:10;;;;;;;4.63;0.70;;;;;;;2.56;89.01;98216.81;5060933;28;20125;-81
2021/12/02 04:17:43;;;;;;;1.85;0.55;;;;;;;2.48;89.49;98242.47;5067433;28;20624;-80
2021/12/02 04:20:15;;;;;;;3.83;0.90;;;;;;;2.44;89.78;98223.66;5060988;28;20068;-80
2021/12/02 04:22:43;;;;;;;1.27;0.60;;;;;;;2.42;90.00;98254.06;5037526;28;20582;-80
2021/12/02 04:25:12;;;;;;;4.38;0.73;;;;;;;2.41;89.76;98229.03;5027214;28;20119;-82
2021/12/02 04:27:40;;;;;;;2.25;0.70;;;;;;;2.40;89.08;98226.53;5027451;28;20051;-81
2021/12/02 04:30:12;;;;;;;3.38;0.63;;;;;;;2.32;89.05;98237.41;5029672;28;20041;-80
2021/12/02 04:32:45;;;;;;;2.50;0.70;;;;;;;2.37;88.84;98231.94;5032978;28;20033;-82
2021/12/02 04:35:15;;;;;;;2.08;0.70;;;;;;;2.36;88.95;98251.88;5027902;28;20118;-80
2021/12/02 04:37:45;;;;;;;2.00;0.60;;;;;;;2.33;89.17;98246.84;5045186;28;20083;-80
2021/12/02 04:40:18;;;;;;;3.38;0.50;;;;;;;2.34;89.31;98268.47;5027325;28;20053;-80
2021/12/02 04:42:46;;;;;;;5.55;1.05;;;;;;;2.30;89.44;98267.84;5079142;28;20127;-81
2021/12/02 04:45:16;;;;;;;2.65;0.75;;;;;;;2.31;89.21;98259.13;5028758;28;20048;-79
2021/12/02 04:47:43;;;;;;;3.78;0.68;;;;;;;2.27;89.66;98293.97;5049435;28;20490;-82
2021/12/02 04:50:13;;;;;;;3.60;0.73;;;;;;;2.22;90.24;98283.88;5027918;28;20119;-80
2021/12/02 04:52:45;;;;;;;6.53;0.95;;;;;;;2.25;89.74;98275.91;5030723;28;20127;-80
2021/12/02 04:55:12;;;;;;;3.85;0.98;;;;;;;2.20;89.64;98295.28;5061948;28;20045;-81
2021/12/02 04:57:41;;;;;;;5.45;0.70;;;;;;;2.24;89.13;98305.38;5048444;28;20112;-82
2021/12/02 05:00:13;;;;;;;2.83;0.93;;;;;;;2.19;89.38;98288.44;5044044;28;20099;-81
2021/12/02 05:02:41;;;;;;;1.42;0.70;;;;;;;2.16;89.89;98301.59;5056033;28;20051;-79
2021/12/02 05:05:11;;;;;;;3.22;0.70;;;;;;;2.13;89.48;98301.78;5079884;28;20638;-80
2021/12/02 05:07:40;;;;;;;2.85;0.80;;;;;;;2.12;88.72;98316.53;5064200;28;20048;-82
2021/12/02 05:10:08;;;;;;;2.45;0.70;;;;;;;2.16;88.06;98310.22;5043205;28;20584;-81
2021/12/02 05:12:37;;;;;;;6.22;0.90;;;;;;;2.07;88.19;98307.34;5046653;28;20094;-80
2021/12/02 05:15:05;;;;;;;2.38;0.70;;;;;;;2.04;89.10;98334.34;5062487;28;20044;-82
2021/12/02 05:17:34;;;;;;;3.25;1.15;;;;;;;2.06;88.17;98326.44;5047751;28;20502;-78
2021/12/02 05:20:05;;;;;;;1.65;0.70;;;;;;;1.97;88.75;98322.66;5027465;28;20049;-82
2021/12/02 05:22:37;;;;;;;3.20;0.57;;;;;;;1.97;88.86;98317.47;5050903;28;20033;-82
2021/12/02 05:25:06;;;;;;;2.33;0.80;;;;;;;1.91;88.94;98326.44;5062355;28;20090;-81
2021/12/02 05:27:34;;;;;;;4.55;0.85;;;;;;;1.94;88.97;98333.22;5040854;28;20045;-81
2021/12/02 05:30:04;;;;;;;2.95;0.75;;;;;;;1.98;90.29;98353.72;5040628;28;20044;-81
2021/12/02 05:32:33;;;;;;;2.47;0.70;;;;;;;2.00;90.23;98351.00;5062680;28;20063;-81
2021/12/02 05:35:03;;;;;;;2.03;0.70;;;;;;;1.94;89.67;98339.25;5043517;28;20083;-83
2021/12/02 05:37:34;;;;;;;2.47;0.75;;;;;;;1.92;89.22;98372.22;5064579;28;20063;-82
2021/12/02 05:40:08;;;;;;;2.40;0.63;;;;;;;1.95;90.41;98353.88;5045074;28;21030;-81
2021/12/02 05:42:39;;;;;;;3.75;0.70;;;;;;;1.88;89.80;98362.94;5068004;28;20051;-81
2021/12/02 05:45:10;;;;;;;1.85;0.75;;;;;;;1.93;88.41;98379.06;5049422;28;20134;-80
2021/12/02 05:47:40;;;;;;;1.42;0.60;;;;;;;1.99;88.42;98373.53;5031349;28;20420;-80
2021/12/02 05:50:10;;;;;;;6.90;0.95;;;;;;;2.01;88.50;98382.06;5048398;28;20053;-81
2021/12/02 05:52:38;;;;;;;1.98;0.70;;;;;;;2.03;87.71;98402.75;5071930;28;20048;-79
2021/12/02 05:55:05;;;;;;;4.75;0.80;;;;;;;2.05;88.30;98380.09;5047477;28;20083;-79
2021/12/02 05:57:32;;;;;;;3.92;0.77;;;;;;;2.01;87.42;98386.41;5067883;28;20048;-80
2021/12/02 06:00:00;;;;;;;2.90;0.80;;;;;;;2.10;86.90;98405.78;5046141;28;20072;-79
2021/12/02 06:02:30;;;;;;;3.13;0.80;;;;;;;2.25;88.66;98397.06;5034734;28;20044;-81
2021/12/02 06:04:58;;;;;;;3.13;1.15;;;;;;;2.10;86.55;98395.41;5033966;28;20119;-81
2021/12/02 06:07:25;;;;;;;1.58;0.45;;;;;;;2.08;86.75;98397.28;5032942;28;20048;-80
2021/12/02 06:09:54;;;;;;;2.97;0.90;;;;;;;2.15;86.44;98414.97;5042924;28;20063;-81
2021/12/02 06:12:27;;;;;;;3.42;0.75;;;;;;;2.17;85.40;98420.91;5013214;28;20531;-82
2021/12/02 06:14:55;;;;;;;3.38;0.68;;;;;;;2.15;85.13;98408.94;5041153;28;20137;-81
2021/12/02 06:17:27;;;;;;;1.45;0.68;;;;;;;2.06;84.06;98425.88;5072552;28;20473;-82
2021/12/02 06:20:00;;;;;;;1.23;0.50;;;;;;;2.03;84.17;98432.13;5066034;28;20059;-80
2021/12/02 06:22:30;;;;;;;6.80;0.95;;;;;;;1.99;83.78;98460.94;5056667;28;20078;-82
2021/12/02 06:27:48;;;;;;;5.82;1.15;;;;;;;1.98;83.83;98448.84;5040746;28;20411;-81
2021/12/02 06:30:17;;;;;;;4.65;0.82;;;;;;;2.04;83.91;98458.91;5029687;28;21018;-81
2021/12/02 06:32:44;;;;;;;1.45;0.90;;;;;;;1.92;84.70;98455.25;5058441;28;20052;-80
2021/12/02 06:35:12;;;;;;;7.25;0.90;;;;;;;1.89;84.72;98464.97;5040144;28;20048;-81
2021/12/02 06:37:40;;;;;;;4.05;1.02;;;;;;;1.77;84.76;98464.75;5043657;28;20040;-82
2021/12/02 06:40:09;;;;;;;2.83;0.88;;;;;;;1.76;84.93;98464.88;5058269;28;20044;-82
2021/12/02 06:42:36;;;;;;;2.03;0.63;;;;;;;1.75;85.13;98476.13;5066068;28;20576;-82
2021/12/02 06:45:04;;;;;;;3.72;0.80;;;;;;;1.77;85.09;98485.50;5046801;28;20147;-82
2021/12/02 06:47:36;;;;;;;3.97;1.00;;;;;;;1.75;85.23;98486.50;5047553;28;20048;-81
2021/12/02 06:50:05;;;;;;;2.72;0.75;;;;;;;1.73;85.49;98481.44;5048142;28;20062;-81
2021/12/02 06:52:32;;;;;;;3.92;0.95;;;;;;;1.73;85.79;98504.78;5048063;28;20076;-81
2021/12/02 06:54:59;;;;;;;1.98;0.82;;;;;;;1.70;86.35;98480.75;5048541;28;20132;-83
2021/12/02 06:57:26;;;;;;;5.50;0.70;;;;;;;1.65;86.35;98509.53;5002326;28;20106;-82
2021/12/02 06:59:54;;;;;;;6.05;0.82;;;;;;;1.66;86.08;98512.97;5060176;28;20056;-83
2021/12/02 07:02:21;;;;;;;5.07;0.93;;;;;;;1.63;86.46;98518.34;5067710;28;20538;-81
2021/12/02 07:04:50;;;;;;;3.47;0.70;;;;;;;1.59;86.12;98524.63;5062256;28;20052;-81
2021/12/02 07:07:17;;;;;;;2.15;0.70;;;;;;;1.56;85.77;98528.22;5049095;28;20147;-82
2021/12/02 07:09:45;;;;;;;3.50;0.88;;;;;;;1.55;86.15;98534.34;5063858;28;20190;-83
2021/12/02 07:12:12;;;;;;;4.22;0.80;;;;;;;1.54;85.88;98529.25;5033490;28;20110;-83
2021/12/02 07:14:43;;;;;;;3.42;0.80;;;;;;;1.53;86.00;98536.16;5044836;28;20131;-82
2021/12/02 07:17:10;;;;;;;3.80;0.68;;;;;;;1.60;85.30;98537.50;5050790;28;20036;-81
2021/12/02 07:19:39;;;;;;;1.15;0.70;;;;;;;1.57;84.70;98545.44;5063427;28;20044;-83
2021/12/02 07:22:07;;;;;;;2.80;0.80;;;;;;;1.61;84.79;98541.75;5051720;28;20479;-82
2021/12/02 07:24:34;;;;;;;5.80;0.98;;;;;;;1.64;85.18;98554.56;5063890;28;20053;-83
2021/12/02 07:27:06;;;;;;;3.63;0.75;;;;;;;1.66;85.04;98546.69;5084414;28;20105;-83
2021/12/02 07:29:33;;;;;;;5.05;0.57;;;;;;;1.64;84.58;98556.31;5060794;28;20098;-83
2021/12/02 07:32:04;;;;;;;3.45;0.73;;;;;;;1.61;83.91;98559.09;5064959;28;20044;-81
2021/12/02 07:34:34;;;;;;;3.08;0.70;;;;;;;1.57;83.53;98566.19;5046408;28;20131;-82
2021/12/02 07:37:02;;;;;;;3.67;0.90;;;;;;;1.53;83.00;98564.69;5033945;28;20538;-82
2021/12/02 07:39:29;;;;;;;4.57;1.00;;;;;;;1.50;83.35;98570.88;5044055;28;20076;-82
2021/12/02 07:41:58;;;;;;;6.72;1.10;;;;;;;1.49;82.84;98577.00;5032165;28;20058;-83
2021/12/02 07:44:26;;;;;;;1.98;0.85;;;;;;;1.51;82.28;98576.91;5044913;28;20589;-83
2021/12/02 07:46:56;;;;;;;7.18;0.95;;;;;;;1.67;81.51;98582.09;5028692;28;20040;-81
2021/12/02 07:49:25;;;;;;;2.53;0.93;;;;;;;1.77;81.08;98581.50;5059856;28;20047;-82
2021/12/02 07:51:58;;;;;;;5.35;0.98;;;;;;;1.79;80.93;98594.38;5027714;28;20036;-82
2021/12/02 07:54:26;;;;;;;5.00;1.10;;;;;;;1.82;81.02;98599.41;5066029;28;20079;-82
2021/12/02 07:56:53;;;;;;;4.90;1.17;;;;;;;1.86;80.62;98610.44;5037905;28;21272;-82
2021/12/02 07:59:21;;;;;;;5.53;1.10;;;;;;;1.84;80.25;98618.28;5037197;28;20053;-81
2021/12/02 08:01:48;;;;;;;3.67;1.10;;;;;;;1.81;80.35;98618.50;5061328;28;20039;-82
2021/12/02 08:04:16;;;;;;;4.72;0.75;;;;;;;1.88;80.09;98624.16;5057025;28;20574;-82
2021/12/02 08:06:43;;;;;;;3.05;1.02;;;;;;;1.84;79.90;98623.50;5026687;28;20049;-81
2021/12/02 08:09:14;;;;;;;5.85;1.10;;;;;;;1.78;79.75;98618.66;5053390;28;20066;-81
2021/12/02 08:11:41;;;;;;;3.90;1.10;;;;;;;1.85;80.22;98630.38;5042947;28;20092;-82
2021/12/02 08:14:15;;;;;;;4.85;1.40;;;;;;;1.82;80.33;98640.91;5027134;28;20040;-81
2021/12/02 08:16:43;;;;;;;4.00;1.20;;;;;;;1.82;80.22;98651.28;5051846;28;20426;-82
2021/12/02 08:19:10;;;;;;;3.90;1.38;;;;;;;1.77;80.06;98653.31;5008130;28;20052;-82
2021/12/02 08:21:38;;;;;;;4.22;1.02;;;;;;;1.81;80.22;98667.78;4999806;28;20056;-82
2021/12/02 08:24:05;;;;;;;4.20;0.98;;;;;;;1.81;79.58;98657.41;5012885;28;20039;-82
2021/12/02 08:26:33;;;;;;;4.38;0.90;;;;;;;1.80;79.27;98680.81;5049548;28;20086;-81
2021/12/02 08:29:02;;;;;;;3.30;0.80;;;;;;;1.65;79.95;98659.13;5055923;28;20108;-81
2021/12/02 08:31:29;;;;;;;8.05;1.17;;;;;;;1.72;80.47;98697.66;5033388;28;20538;-82
2021/12/02 08:33:57;;;;;;;6.00;1.40;;;;;;;1.76;79.88;98683.59;5069375;28;20127;-80
2021/12/02 08:36:28;;;;;;;1.73;0.60;;;;;;;1.69;79.94;98686.59;5044099;28;20178;-81
2021/12/02 08:38:58;;;;;;;4.45;1.00;;;;;;;1.76;79.96;98691.38;5056549;28;20044;-81
2021/12/02 08:41:25;;;;;;;3.70;1.20;;;;;;;1.81;79.29;98698.91;5076429;28;20037;-80
2021/12/02 08:43:54;;;;;;;5.70;1.10;;;;;;;1.77;79.21;98703.41;5060197;28;20048;-81
2021/12/02 08:46:23;;;;;;;4.28;0.80;;;;;;;1.63;78.91;98731.84;5045253;28;20044;-83
2021/12/02 08:48:53;;;;;;;5.30;0.90;;;;;;;1.61;78.88;98732.84;5031586;28;20344;-82
2021/12/02 08:51:20;;;;;;;4.97;1.05;;;;;;;1.58;78.63;98707.94;5066292;28;20048;-81
2021/12/02 08:53:48;;;;;;;5.13;1.00;;;;;;;1.63;78.62;98725.84;5065581;28;20668;-83
2021/12/02 08:56:15;;;;;;;3.60;0.95;;;;;;;1.61;78.64;98725.91;5047252;28;20044;-82
2021/12/02 08:58:42;;;;;;;3.10;1.00;;;;;;;1.63;78.67;98731.84;5064979;28;20064;-82
2021/12/02 09:01:09;;;;;;;7.90;1.10;;;;;;;1.65;78.00;98716.19;5024937;28;20063;-81
2021/12/02 09:03:38;;;;;;;3.33;0.98;;;;;;;1.58;78.34;98717.47;5028656;28;20037;-82
2021/12/02 09:06:10;;;;;;;9.40;1.00;;;;;;;1.67;78.44;98743.75;5046794;28;20073;-82
2021/12/02 09:08:39;;;;;;;0.93;0.60;;;;;;;1.71;77.32;98731.44;5047769;28;21074;-82
2021/12/02 09:11:08;;;;;;;4.18;1.33;;;;;;;1.88;77.01;98733.13;5049765;28;20067;-82
2021/12/02 09:13:35;;;;;;;2.22;0.98;;;;;;;2.14;75.92;98749.91;5045055;28;20179;-82
2021/12/02 09:16:02;;;;;;;6.78;1.10;;;;;;;2.11;75.70;98739.66;5051622;28;20189;-82
2021/12/02 09:18:30;;;;;;;6.28;1.60;;;;;;;2.21;75.44;98756.44;5084878;28;20072;-82
2021/12/02 09:20:58;;;;;;;5.13;1.08;;;;;;;2.01;74.48;98758.34;5030201;28;20079;-82
2021/12/02 09:23:28;;;;;;;5.60;1.35;;;;;;;2.04;74.64;98765.13;5053644;28;20091;-82
2021/12/02 09:25:55;;;;;;;4.63;1.05;;;;;;;2.23;74.91;98776.19;5018856;28;20174;-82
2021/12/02 09:28:22;;;;;;;2.85;1.05;;;;;;;2.26;73.88;98767.41;5068342;28;21017;-82
2021/12/02 09:30:50;;;;;;;2.53;0.52;;;;;;;2.19;73.17;98771.25;5035650;28;20080;-80
2021/12/02 09:33:19;;;;;;;4.40;1.10;;;;;;;2.20;72.74;98771.16;5067897;28;20063;-80
2021/12/02 09:35:47;;;;;;;3.60;0.88;;;;;;;2.38;72.25;98771.91;5051783;28;20131;-82
2021/12/02 09:38:15;;;;;;;1.90;0.73;;;;;;;2.37;70.49;98769.41;5051988;28;20598;-81
2021/12/02 09:40:46;;;;;;;2.47;0.93;;;;;;;2.08;71.80;98756.25;5051435;28;20044;-82
2021/12/02 09:43:14;;;;;;;5.45;1.17;;;;;;;2.16;71.21;98767.06;5035142;28;20059;-81
2021/12/02 09:45:44;;;;;;;8.20;1.50;;;;;;;2.27;70.01;98774.28;5066951;28;20491;-82
2021/12/02 09:48:11;;;;;;;6.63;0.85;;;;;;;2.17;70.48;98771.34;5051253;28;20059;-82
2021/12/02 09:50:50;;;;;;;4.05;1.02;;;;;;;2.50;69.87;98768.66;5066880;28;20060;-82
2021/12/02 09:53:22;;;;;;;6.53;1.08;;;;;;;2.43;69.54;98775.13;5052294;28;20802;-82
2021/12/02 09:56:26;;;;;;;3.25;0.95;;;;;;;2.43;68.88;98780.31;5035500;28;20079;-81
2021/12/02 09:58:43;;;;;;;1.60;0.80;;;;;;;2.48;68.06;98782.66;5043299;28;20056;-82
2021/12/02 10:01:16;;;;;;;3.45;1.60;;;;;;;2.51;68.83;98798.03;5049895;28;20171;-82
2021/12/02 10:03:46;;;;;;;2.22;0.73;;;;;;;2.56;68.41;98787.41;5018584;28;20147;-81
2021/12/02 10:06:20;;;;;;;5.45;1.25;;;;;;;2.69;68.15;98786.63;5034498;28;20036;-81
2021/12/02 10:11:35;;;;;;;6.18;1.20;;;;;;;2.67;67.51;98787.66;5032973;28;20032;-81
2021/12/02 10:14:22;;;;;;;6.65;1.17;;;;;;;2.63;67.51;98792.19;5063101;28;20178;-80
2021/12/02 10:16:53;;;;;;;7.38;1.05;;;;;;;2.72;67.37;98798.63;5062314;28;20140;-82
2021/12/02 10:19:24;;;;;;;5.88;1.00;;;;;;;2.81;67.19;98798.09;5048693;28;20139;-81
2021/12/02 10:21:56;;;;;;;2.83;0.90;;;;;;;2.92;66.64;98803.53;5050691;28;20382;-81
2021/12/02 10:24:26;;;;;;;4.25;0.80;;;;;;;2.66;67.51;98807.59;5059732;28;20506;-82
2021/12/02 10:27:04;;;;;;;7.45;0.95;;;;;;;2.60;67.82;98817.50;5035594;28;20128;-80
2021/12/02 10:29:47;;;;;;;2.15;0.70;;;;;;;2.59;66.91;98813.22;5066709;28;20050;-82
2021/12/02 10:32:22;;;;;;;3.33;1.10;;;;;;;2.64;67.55;98816.41;5034596;28;20502;-81
2021/12/02 10:35:06;;;;;;;5.47;0.80;;;;;;;2.87;67.43;98821.13;5045674;28;20075;-81
2021/12/02 10:37:34;;;;;;;3.78;1.00;;;;;;;2.66;67.39;98831.00;5035426;28;20521;-82
2021/12/02 10:40:14;;;;;;;3.83;1.20;;;;;;;2.77;67.32;98817.38;5031471;28;20046;-82
2021/12/02 10:42:44;;;;;;;4.97;1.08;;;;;;;2.87;67.16;98817.72;5037859;28;20131;-82
2021/12/02 10:45:38;;;;;;;8.40;1.10;;;;;;;3.13;67.08;98816.25;5048239;28;20050;-81
2021/12/02 10:48:05;;;;;;;5.43;1.30;;;;;;;3.13;66.54;98808.44;5063547;28;20060;-81
2021/12/02 10:50:37;;;;;;;4.63;1.20;;;;;;;3.30;66.41;98806.53;5050128;28;20400;-82
2021/12/02 10:53:05;;;;;;;4.97;1.08;;;;;;;3.54;65.09;98814.66;5057701;28;20039;-83
2021/12/02 10:55:33;;;;;;;6.53;1.05;;;;;;;3.63;64.51;98828.06;5018492;28;20040;-83
2021/12/02 10:58:03;;;;;;;3.97;1.13;;;;;;;3.59;64.47;98817.00;5053915;28;20036;-83
2021/12/02 11:00:35;;;;;;;3.97;1.20;;;;;;;3.78;63.84;98822.78;5062159;28;20692;-83
2021/12/02 11:03:13;;;;;;;4.28;0.95;;;;;;;3.80;63.90;98827.91;5051308;28;20098;-83
2021/12/02 11:05:48;;;;;;;4.82;0.93;;;;;;;3.64;64.23;98821.91;5015993;28;20506;-83
2021/12/02 11:08:16;;;;;;;2.87;0.80;;;;;;;3.63;63.41;98828.06;5050187;28;20441;-83
2021/12/02 11:10:50;;;;;;;2.92;0.75;;;;;;;3.62;63.50;98829.81;5017734;28;20033;-83
2021/12/02 11:13:24;;;;;;;3.65;0.90;;;;;;;3.97;63.05;98829.50;5034534;28;20039;-83
2021/12/02 11:15:53;;;;;;;2.92;1.13;;;;;;;4.34;61.49;98835.03;5082381;28;20131;-82
2021/12/02 11:18:21;;;;;;;3.05;1.15;;;;;;;4.75;60.27;98841.09;5048300;28;20650;-83
2021/12/02 11:20:51;;;;;;;5.93;0.95;;;;;;;4.61;60.33;98835.09;5067034;28;20043;-83
2021/12/02 11:23:21;;;;;;;5.93;1.10;;;;;;;5.31;58.68;98835.75;5050877;28;20187;-83
2021/12/02 11:26:21;;;;;;;4.65;1.10;;;;;;;5.34;58.67;98841.59;5032579;28;20040;-84
2021/12/02 11:28:49;;;;;;;;;;;;;;;5.24;57.35;98852.75;5011077;28;20040;-84
2021/12/02 11:31:20;;;;;;;4.35;0.80;;;;;;;5.22;57.45;98846.78;5055967;28;20347;-82
2021/12/02 11:33:52;;;;;;;4.97;1.00;;;;;;;5.65;56.84;98841.34;5048606;28;20116;-84
2021/12/02 11:36:26;;;;;;;5.32;0.82;;;;;;;5.36;56.28;98851.09;5033951;28;20044;-84
2021/12/02 11:38:57;;;;;;;4.97;0.85;;;;;;;6.14;54.84;98848.50;5050547;28;20040;-84
2021/12/02 11:41:26;;;;;;;5.47;1.05;;;;;;;5.94;54.87;98842.84;5034161;28;20123;-82
2021/12/02 11:43:54;;;;;;;3.95;1.00;;;;;;;6.15;54.14;98852.78;5015096;28;20058;-83
2021/12/02 11:46:22;;;;;;;5.88;1.00;;;;;;;6.17;53.52;98853.47;5050165;28;20556;-82
2021/12/02 11:48:49;;;;;;;4.65;0.80;;;;;;;6.05;53.93;98869.06;5016056;28;20529;-81
2021/12/02 11:51:20;;;;;;;4.47;1.75;;;;;;;7.31;50.73;98863.59;5045936;28;20152;-82
2021/12/02 11:53:49;;;;;;;4.10;0.80;;;;;;;8.18;48.05;98877.16;5066068;28;20143;-81
2021/12/02 11:56:19;;;;;;;2.80;0.80;;;;;;;9.79;44.58;98874.78;5081367;28;20442;-81
2021/12/02 11:58:48;;;;;;;5.80;1.10;;;;;;;9.60;43.72;98878.94;5047934;28;20055;-81
2021/12/02 12:01:18;;;;;;;4.07;0.82;;;;;;;10.80;41.97;98871.41;5025289;28;20058;-82
2021/12/02 12:04:09;;;;;;;3.95;0.93;;;;;;;12.04;39.06;98870.75;5039707;28;20060;-80
2021/12/02 12:06:41;;;;;;;5.80;1.05;;;;;;;12.42;37.98;98885.63;5037135;28;20511;-79
2021/12/02 12:09:18;;;;;;;6.50;1.42;;;;;;;11.04;39.40;98895.56;5039250;28;20751;-82
2021/12/02 12:11:47;;;;;;;1.95;0.70;;;;;;;11.51;39.02;98884.38;5057121;28;20605;-83
2021/12/02 12:14:21;;;;;;;7.18;0.90;;;;;;;12.50;36.73;98891.03;5027192;28;20098;-80
2021/12/02 12:16:51;;;;;;;2.95;1.92;;;;;;;12.20;36.27;98896.53;5044786;28;20636;-80
2021/12/02 12:19:27;;;;;;;3.08;0.85;;;;;;;12.57;36.05;98891.28;5046650;28;20118;-83
2021/12/02 12:21:57;;;;;;;3.63;1.02;;;;;;;10.71;39.04;98891.44;5055874;28;20127;-83